MUGM/NBW METAR and TAF weather

Enter ICAO airport designator
Station Type Date Time Source
MUGM METAR 2019/08/22 03:56 UTC NOAA

MUGM 220356Z 32006KT 9999 FEW030 SCT280 26/23 A3003 RMK SLP169 T02610228


Station Type Date Time Source
MUGM Decoded METAR 2019/08/22 03:56 UTC NOAA

Station name not available
Aug 21, 2019 - 11:56 PM EDT / 2019.08.22 0356 UTC
Wind: from the NW (320 degrees) at 7 MPH (6 KT):0
Visibility: greater than 7 mile(s):0
Sky conditions: partly cloudy
Temperature: 79.0 F (26.1 C)
Dew Point: 73.0 F (22.8 C)
Relative Humidity: 82%
Pressure (altimeter): 30.03 in. Hg (1016 hPa)
ob: MUGM 220356Z 32006KT 9999 FEW030 SCT280 26/23 A3003 RMK SLP169 T02610228
cycle: 4

Station Type Date Time Source
MUGM TAF 2019/08/21 23:58 UTC NOAA

TAF MUGM 2123/2223 35009KT 9999 VCTS FEW030CB SCT080 BKN200 QNH2997INS
BECMG 2200/2202 35006KT 9999 VCTS FEW030CB FEW080 BKN200 QNH2998INS
BECMG 2204/2206 36006KT 9999 VCTS FEW030CB BKN280 QNH2996INS
FM221000 03008KT 9999 FEW030 FEW120 BKN280 QNH2995INS
FM221500 15008KT 9999 FEW030 FEW120 SCT280 QNH2995INS
FM221800 17010KT 9999 VCTS FEW030CB SCT120 BKN280 QNH2993INS
TEMPO 2218/2222 VRB15G25KT 9000 -TSRA BKN025CB BKN080 OVC150 T25/2211Z T32/2218Z FN20068

Example: see airport list